createdAt,value
2023-05-09T00:01:35.409Z,9.00
2023-05-09T00:04:02.768Z,8.99
2023-05-09T00:06:29.935Z,9.10
2023-05-09T00:08:57.110Z,9.01
2023-05-09T00:11:24.300Z,8.88
2023-05-09T00:13:52.054Z,8.77
2023-05-09T00:16:20.654Z,8.84
2023-05-09T00:18:48.268Z,8.59
2023-05-09T00:21:15.735Z,8.83
2023-05-09T00:23:42.913Z,8.69
2023-05-09T00:26:10.667Z,8.67
2023-05-09T00:28:39.309Z,8.84
2023-05-09T00:31:06.839Z,8.66
2023-05-09T00:33:34.085Z,8.46
2023-05-09T00:36:01.591Z,8.50
2023-05-09T00:38:28.805Z,8.56
2023-05-09T00:40:55.918Z,8.59
2023-05-09T00:43:23.159Z,8.74
2023-05-09T00:45:50.820Z,8.53
2023-05-09T00:48:19.558Z,8.64
2023-05-09T00:50:52.689Z,8.60
2023-05-09T00:53:20.774Z,8.46
2023-05-09T00:55:48.314Z,8.59
2023-05-09T00:58:15.972Z,8.67
2023-05-09T01:00:43.518Z,8.59
2023-05-09T01:03:11.298Z,8.64
2023-05-09T01:05:47.606Z,8.48
2023-05-09T01:08:31.271Z,8.49
2023-05-09T01:11:13.054Z,8.53
2023-05-09T01:13:49.395Z,8.50
2023-05-09T01:16:32.827Z,8.45
2023-05-09T01:19:23.303Z,8.53
2023-05-09T01:21:51.233Z,8.48
2023-05-09T01:24:21.344Z,8.52
2023-05-09T01:27:12.986Z,8.50
2023-05-09T01:29:48.458Z,8.67
2023-05-09T01:32:24.350Z,8.48
2023-05-09T01:34:54.444Z,8.35
2023-05-09T01:37:35.710Z,8.55
2023-05-09T01:40:14.716Z,8.43
2023-05-09T01:42:47.658Z,8.39
2023-05-09T01:45:16.268Z,8.31
2023-05-09T01:47:44.115Z,8.24
2023-05-09T01:50:12.766Z,8.24
2023-05-09T01:52:42.533Z,8.26
2023-05-09T01:55:11.735Z,8.35
2023-05-09T01:57:40.461Z,8.34
2023-05-09T02:00:10.230Z,8.38
2023-05-09T02:02:41.088Z,8.12
2023-05-09T02:05:11.289Z,7.97
2023-05-09T02:07:41.415Z,8.11
2023-05-09T02:10:10.189Z,7.81
2023-05-09T02:12:38.494Z,7.95
2023-05-09T02:15:06.794Z,7.99
2023-05-09T02:17:34.258Z,8.04
2023-05-09T02:20:01.621Z,8.05
2023-05-09T02:22:29.037Z,7.93
2023-05-09T02:24:57.107Z,7.78
2023-05-09T02:27:24.830Z,7.80
2023-05-09T02:29:57.558Z,7.67
2023-05-09T02:32:28.888Z,7.81
2023-05-09T02:34:58.936Z,7.66
2023-05-09T02:37:26.924Z,7.77
2023-05-09T02:39:55.005Z,7.67
2023-05-09T02:42:25.405Z,7.62
2023-05-09T02:44:53.850Z,7.65
2023-05-09T02:47:21.607Z,7.53
2023-05-09T02:49:48.833Z,7.40
2023-05-09T02:52:16.612Z,7.39
2023-05-09T02:54:43.883Z,7.28
2023-05-09T02:57:11.144Z,7.28
2023-05-09T02:59:38.381Z,7.30
2023-05-09T03:02:05.518Z,7.29
2023-05-09T03:04:32.755Z,7.33
2023-05-09T03:07:00.319Z,7.09
2023-05-09T03:09:31.801Z,7.15
2023-05-09T03:11:59.069Z,7.18
2023-05-09T03:14:26.320Z,7.00
2023-05-09T03:16:55.365Z,7.15
2023-05-09T03:19:30.511Z,7.19
2023-05-09T03:21:57.802Z,7.22
2023-05-09T03:24:26.700Z,7.19
2023-05-09T03:26:54.608Z,7.09
2023-05-09T03:29:22.523Z,7.33
2023-05-09T03:31:50.068Z,7.33
2023-05-09T03:34:17.275Z,7.36
2023-05-09T03:36:45.305Z,7.47
2023-05-09T03:39:14.803Z,7.46
2023-05-09T03:41:45.336Z,7.25
2023-05-09T03:44:13.175Z,7.33
2023-05-09T03:46:40.633Z,7.40
2023-05-09T03:49:08.246Z,7.55
2023-05-09T03:51:36.762Z,7.59
2023-05-09T03:54:06.698Z,7.59
2023-05-09T03:56:35.018Z,7.76
2023-05-09T03:59:02.200Z,7.86
2023-05-09T04:01:30.664Z,7.70
2023-05-09T04:04:00.390Z,7.80
2023-05-09T04:06:30.142Z,7.87
2023-05-09T04:08:58.316Z,7.84
2023-05-09T04:11:25.757Z,7.70
2023-05-09T04:13:54.752Z,7.76
2023-05-09T04:16:31.798Z,7.93
2023-05-09T04:18:59.568Z,7.94
2023-05-09T04:21:26.799Z,7.91
2023-05-09T04:23:56.961Z,8.11
2023-05-09T04:26:31.537Z,8.08
2023-05-09T04:28:59.725Z,8.24
2023-05-09T04:31:27.123Z,8.16
2023-05-09T04:33:54.469Z,8.31
2023-05-09T04:36:23.099Z,8.31
2023-05-09T04:38:50.465Z,8.52
2023-05-09T04:41:23.041Z,8.41
2023-05-09T04:43:50.723Z,8.42
2023-05-09T04:46:18.228Z,8.66
2023-05-09T04:48:45.463Z,8.55
2023-05-09T04:51:12.554Z,8.72
2023-05-09T04:53:39.710Z,8.85
2023-05-09T04:56:07.300Z,9.05
2023-05-09T04:58:38.529Z,9.14
2023-05-09T05:01:09.750Z,9.62
2023-05-09T05:03:37.223Z,10.21
2023-05-09T05:06:05.466Z,10.99
2023-05-09T05:08:33.144Z,11.28
2023-05-09T05:11:00.461Z,12.06
2023-05-09T05:13:28.372Z,11.79
2023-05-09T05:15:59.065Z,12.30
2023-05-09T05:18:26.428Z,12.61
2023-05-09T05:20:54.455Z,12.51
2023-05-09T05:23:22.035Z,12.88
2023-05-09T05:25:52.733Z,13.49
2023-05-09T05:28:20.227Z,13.97
2023-05-09T05:30:47.851Z,13.57
2023-05-09T05:33:15.088Z,14.11
2023-05-09T05:35:42.247Z,13.91
2023-05-09T05:38:09.448Z,14.45
2023-05-09T05:40:37.151Z,14.88
2023-05-09T05:43:06.275Z,15.24
2023-05-09T05:45:36.025Z,14.87
2023-05-09T05:48:05.742Z,15.38
2023-05-09T05:50:33.512Z,15.80
2023-05-09T05:53:01.062Z,15.66
2023-05-09T05:55:28.365Z,16.21
2023-05-09T05:57:55.634Z,16.62
2023-05-09T06:00:22.974Z,15.97
2023-05-09T06:02:57.173Z,16.82
2023-05-09T06:05:34.029Z,17.03
2023-05-09T06:08:01.354Z,16.52
2023-05-09T06:10:28.661Z,17.52
2023-05-09T06:12:56.092Z,16.41
2023-05-09T06:15:23.969Z,17.58
2023-05-09T06:17:51.540Z,17.98
2023-05-09T06:20:18.775Z,18.07
2023-05-09T06:22:46.431Z,18.48
2023-05-09T06:25:13.837Z,18.30
2023-05-09T06:27:42.336Z,17.65
2023-05-09T06:30:23.971Z,17.83
2023-05-09T06:32:53.917Z,17.82
2023-05-09T06:35:21.220Z,18.41
2023-05-09T06:37:49.176Z,18.05
2023-05-09T06:40:17.095Z,17.68
2023-05-09T06:42:45.078Z,18.60
2023-05-09T06:45:12.699Z,18.41
2023-05-09T06:47:40.115Z,18.46
2023-05-09T06:50:08.166Z,18.82
2023-05-09T06:52:35.978Z,17.59
2023-05-09T06:55:03.847Z,18.10
2023-05-09T06:57:31.636Z,18.50
2023-05-09T06:59:58.800Z,19.23
2023-05-09T07:02:26.070Z,18.51
2023-05-09T07:04:53.318Z,19.01
2023-05-09T07:07:20.682Z,18.47
2023-05-09T07:09:50.732Z,19.03
2023-05-09T07:12:20.146Z,20.18
2023-05-09T07:14:47.352Z,18.63
2023-05-09T07:17:23.052Z,18.22
2023-05-09T07:19:51.986Z,18.94
2023-05-09T07:22:19.420Z,19.50
2023-05-09T07:24:46.796Z,19.40
2023-05-09T07:27:14.041Z,19.03
2023-05-09T07:29:41.350Z,19.54
2023-05-09T07:32:08.804Z,19.85
2023-05-09T07:34:36.629Z,19.53
2023-05-09T07:37:03.828Z,20.21
2023-05-09T07:39:31.040Z,19.63
2023-05-09T07:41:58.239Z,19.73
2023-05-09T07:44:25.801Z,20.11
2023-05-09T07:46:55.335Z,20.70
2023-05-09T07:49:22.579Z,19.64
2023-05-09T07:51:49.755Z,20.94
2023-05-09T07:54:17.224Z,20.47
2023-05-09T07:56:44.364Z,21.60
2023-05-09T07:59:12.322Z,19.99
2023-05-09T08:01:39.554Z,20.39
2023-05-09T08:04:09.165Z,20.90
2023-05-09T08:06:36.835Z,20.49
2023-05-09T08:09:04.858Z,20.15
2023-05-09T08:11:36.016Z,21.79
2023-05-09T08:14:03.396Z,21.60
2023-05-09T08:16:30.824Z,20.67
2023-05-09T08:18:58.186Z,21.45
2023-05-09T08:21:25.649Z,22.35
2023-05-09T08:23:53.202Z,22.55
2023-05-09T08:26:22.598Z,21.29
2023-05-09T08:28:49.780Z,22.41
2023-05-09T08:31:17.004Z,22.18
2023-05-09T08:33:44.249Z,22.18
2023-05-09T08:36:11.496Z,22.28
2023-05-09T08:38:40.521Z,22.65
2023-05-09T08:41:07.774Z,22.79
2023-05-09T08:43:35.524Z,23.30
2023-05-09T08:46:10.650Z,21.90
2023-05-09T08:48:38.941Z,22.35
2023-05-09T08:51:07.069Z,21.93
2023-05-09T08:53:34.668Z,21.85
2023-05-09T08:56:04.027Z,22.82
2023-05-09T08:58:32.103Z,21.98
2023-05-09T09:01:00.207Z,22.77
2023-05-09T09:03:27.715Z,22.73
2023-05-09T09:05:56.316Z,23.33
2023-05-09T09:08:24.473Z,23.20
2023-05-09T09:10:52.011Z,22.95
2023-05-09T09:13:20.586Z,23.21
2023-05-09T09:15:51.545Z,22.44
2023-05-09T09:18:23.587Z,21.85
2023-05-09T09:20:58.361Z,20.76
2023-05-09T09:23:27.212Z,20.14
2023-05-09T09:26:04.481Z,19.66
2023-05-09T09:28:32.613Z,19.82
2023-05-09T09:30:59.763Z,19.36
2023-05-09T09:33:28.702Z,19.91
2023-05-09T09:35:57.125Z,20.25
2023-05-09T09:38:24.871Z,19.84
2023-05-09T09:40:52.031Z,19.88
2023-05-09T09:43:19.389Z,19.77
2023-05-09T09:45:53.338Z,19.50
2023-05-09T09:48:30.791Z,19.78
2023-05-09T09:51:02.172Z,19.95
2023-05-09T09:53:30.675Z,19.87
2023-05-09T09:55:58.678Z,20.07
2023-05-09T09:58:26.542Z,19.49
2023-05-09T10:01:16.881Z,19.75
2023-05-09T10:03:46.218Z,19.43
2023-05-09T10:06:16.026Z,19.41
2023-05-09T10:08:46.844Z,19.05
2023-05-09T10:11:14.449Z,19.29
2023-05-09T10:13:42.548Z,19.32
2023-05-09T10:16:10.554Z,18.60
2023-05-09T10:18:39.716Z,19.02
2023-05-09T10:21:09.581Z,19.32
2023-05-09T10:23:38.444Z,19.53
2023-05-09T10:26:17.817Z,19.74
2023-05-09T10:28:48.199Z,19.53
2023-05-09T10:31:22.277Z,19.80
2023-05-09T10:33:51.037Z,19.85
2023-05-09T10:36:26.223Z,19.78
2023-05-09T10:38:54.990Z,19.50
2023-05-09T10:41:23.707Z,19.37
2023-05-09T10:43:51.292Z,19.54
2023-05-09T10:46:18.750Z,19.67
2023-05-09T10:48:48.036Z,19.71
2023-05-09T10:51:17.600Z,19.77
2023-05-09T10:53:47.047Z,19.94
2023-05-09T10:56:26.431Z,20.15
2023-05-09T10:58:54.730Z,20.36
2023-05-09T11:01:34.941Z,20.22
2023-05-09T11:04:08.693Z,20.35
2023-05-09T11:06:42.044Z,20.49
2023-05-09T11:09:35.797Z,20.40
2023-05-09T11:12:05.983Z,20.33
2023-05-09T11:14:35.994Z,20.30
2023-05-09T11:17:05.183Z,19.95
2023-05-09T11:19:36.918Z,20.11
2023-05-09T11:22:16.518Z,20.63
2023-05-09T11:25:07.454Z,20.01
2023-05-09T11:27:52.163Z,20.16
2023-05-09T11:30:20.724Z,20.26
2023-05-09T11:32:52.148Z,20.42
2023-05-09T11:35:21.632Z,19.98
2023-05-09T11:38:06.638Z,19.82
2023-05-09T11:40:37.456Z,20.25
2023-05-09T11:43:07.064Z,20.63
2023-05-09T11:45:34.817Z,20.95
2023-05-09T11:48:09.028Z,20.30
2023-05-09T11:50:36.231Z,20.80
2023-05-09T11:53:03.339Z,20.98
2023-05-09T11:55:31.572Z,20.90
2023-05-09T11:57:59.025Z,20.72
2023-05-09T12:00:26.538Z,20.39
2023-05-09T12:02:54.223Z,20.47
2023-05-09T12:05:22.856Z,19.92
2023-05-09T12:07:50.975Z,19.84
2023-05-09T12:10:25.531Z,19.97
2023-05-09T12:12:55.693Z,19.46
2023-05-09T12:15:23.149Z,19.60
2023-05-09T12:18:08.155Z,20.02
2023-05-09T12:20:41.494Z,20.28
2023-05-09T12:23:11.087Z,19.77
2023-05-09T12:25:38.623Z,19.94
2023-05-09T12:28:06.104Z,19.53
2023-05-09T12:30:33.548Z,19.71
2023-05-09T12:33:01.006Z,20.18
2023-05-09T12:35:28.282Z,20.69
2023-05-09T12:37:57.860Z,20.95
2023-05-09T12:40:25.477Z,20.50
2023-05-09T12:42:54.406Z,20.14
2023-05-09T12:45:21.661Z,20.05
2023-05-09T12:47:52.367Z,19.49
2023-05-09T12:50:19.770Z,19.49
2023-05-09T12:53:01.865Z,19.68
2023-05-09T12:55:31.824Z,19.45
2023-05-09T12:58:01.508Z,19.30
2023-05-09T13:00:29.210Z,19.24
2023-05-09T13:02:57.135Z,19.24
2023-05-09T13:05:24.690Z,19.45
2023-05-09T13:07:56.225Z,19.63
2023-05-09T13:10:26.190Z,19.74
2023-05-09T13:12:53.766Z,19.67
2023-05-09T13:15:26.785Z,19.94
2023-05-09T13:17:54.386Z,20.11
2023-05-09T13:20:21.638Z,19.66
2023-05-09T13:22:48.983Z,19.68
2023-05-09T13:25:16.926Z,19.67
2023-05-09T13:27:44.150Z,19.98
2023-05-09T13:30:12.724Z,20.33
2023-05-09T13:32:40.236Z,19.94
2023-05-09T13:35:08.052Z,20.19
2023-05-09T13:37:35.707Z,20.32
2023-05-09T13:40:04.315Z,20.15
2023-05-09T13:42:33.402Z,20.25
2023-05-09T13:45:00.939Z,20.15
2023-05-09T13:47:28.378Z,19.59
2023-05-09T13:49:55.571Z,19.47
2023-05-09T13:52:23.223Z,19.33
2023-05-09T13:54:50.441Z,19.29
2023-05-09T13:57:17.706Z,19.03
2023-05-09T13:59:44.809Z,19.29
2023-05-09T14:02:12.893Z,19.56
2023-05-09T14:04:41.619Z,19.60
2023-05-09T14:07:11.199Z,19.71
2023-05-09T14:09:40.221Z,19.50
2023-05-09T14:12:07.951Z,19.59
2023-05-09T14:14:35.311Z,19.87
2023-05-09T14:17:02.867Z,20.08
2023-05-09T14:19:33.023Z,20.12
2023-05-09T14:22:00.269Z,20.05
2023-05-09T14:24:30.808Z,20.25
2023-05-09T14:26:58.010Z,20.11
2023-05-09T14:29:25.227Z,20.21
2023-05-09T14:31:52.535Z,20.35
2023-05-09T14:34:19.798Z,20.35
2023-05-09T14:36:47.021Z,20.32
2023-05-09T14:39:14.261Z,20.21
2023-05-09T14:41:41.545Z,20.05
2023-05-09T14:44:08.699Z,20.05
2023-05-09T14:46:37.001Z,19.99
2023-05-09T14:49:04.368Z,19.99
2023-05-09T14:51:33.302Z,19.47
2023-05-09T14:54:03.118Z,19.30
2023-05-09T14:56:31.593Z,19.33
2023-05-09T14:58:58.733Z,18.91
2023-05-09T15:01:26.146Z,19.03
2023-05-09T15:03:53.459Z,19.20
2023-05-09T15:06:20.790Z,19.01
2023-05-09T15:08:48.000Z,19.11
2023-05-09T15:11:15.276Z,19.12
2023-05-09T15:13:42.419Z,19.19
2023-05-09T15:16:10.120Z,19.18
2023-05-09T15:18:37.365Z,19.26
2023-05-09T15:21:04.890Z,19.43
2023-05-09T15:23:32.186Z,19.54
2023-05-09T15:25:59.396Z,19.50
2023-05-09T15:28:26.570Z,19.49
2023-05-09T15:30:53.908Z,19.27
2023-05-09T15:33:21.192Z,19.03
2023-05-09T15:35:50.149Z,19.16
2023-05-09T15:38:17.426Z,19.29
2023-05-09T15:40:44.641Z,19.27
2023-05-09T15:43:12.982Z,19.15
2023-05-09T15:45:45.494Z,19.01
2023-05-09T15:48:14.261Z,18.78
2023-05-09T15:50:44.986Z,18.76
2023-05-09T15:53:12.184Z,18.75
2023-05-09T15:55:39.361Z,18.79
2023-05-09T15:58:07.489Z,18.84
2023-05-09T16:00:34.607Z,18.87
2023-05-09T16:03:01.946Z,18.89
2023-05-09T16:05:29.254Z,18.92
2023-05-09T16:07:56.499Z,18.89
2023-05-09T16:10:23.643Z,18.91
2023-05-09T16:12:51.175Z,18.88
2023-05-09T16:15:18.426Z,18.85
2023-05-09T16:17:45.610Z,18.81
2023-05-09T16:20:14.271Z,18.69
2023-05-09T16:22:42.163Z,18.76
2023-05-09T16:25:09.632Z,18.64
2023-05-09T16:27:36.959Z,18.71
2023-05-09T16:30:05.752Z,18.69
2023-05-09T16:32:32.941Z,18.72
2023-05-09T16:35:00.141Z,18.67
2023-05-09T16:37:29.833Z,18.57
2023-05-09T16:39:57.868Z,18.61
2023-05-09T16:42:25.519Z,18.58
2023-05-09T16:44:52.697Z,18.64
2023-05-09T16:47:19.920Z,18.61
2023-05-09T16:49:47.051Z,18.58
2023-05-09T16:52:14.343Z,18.57
2023-05-09T16:54:41.551Z,18.58
2023-05-09T16:57:08.864Z,18.53
2023-05-09T16:59:37.217Z,18.51
2023-05-09T17:02:04.708Z,18.53
2023-05-09T17:04:32.074Z,18.53
2023-05-09T17:06:59.314Z,18.53
2023-05-09T17:09:26.611Z,18.50
2023-05-09T17:11:53.805Z,18.50
2023-05-09T17:14:20.982Z,18.38
2023-05-09T17:16:48.234Z,18.30
2023-05-09T17:19:16.515Z,18.23
2023-05-09T17:21:44.341Z,18.12
2023-05-09T17:24:11.501Z,18.07
2023-05-09T17:26:39.133Z,18.00
2023-05-09T17:29:06.297Z,17.93
2023-05-09T17:31:33.533Z,17.88
2023-05-09T17:34:01.454Z,17.78
2023-05-09T17:36:28.762Z,17.74
2023-05-09T17:38:56.138Z,17.68
2023-05-09T17:41:23.354Z,17.62
2023-05-09T17:43:53.882Z,17.55
2023-05-09T17:46:21.153Z,17.48
2023-05-09T17:48:48.619Z,17.45
2023-05-09T17:51:16.967Z,17.34
2023-05-09T17:53:44.206Z,17.30
2023-05-09T17:56:11.408Z,17.14
2023-05-09T17:58:38.609Z,17.17
2023-05-09T18:01:05.930Z,17.06
2023-05-09T18:03:33.274Z,17.04
2023-05-09T18:06:01.657Z,17.02
2023-05-09T18:08:29.807Z,16.89
2023-05-09T18:10:57.809Z,16.87
2023-05-09T18:13:25.117Z,16.82
2023-05-09T18:15:54.899Z,16.77
2023-05-09T18:18:23.046Z,16.68
2023-05-09T18:20:50.397Z,16.64
2023-05-09T18:23:17.548Z,16.55
2023-05-09T18:25:44.766Z,16.48
2023-05-09T18:28:11.952Z,16.49
2023-05-09T18:30:39.494Z,16.44
2023-05-09T18:33:07.175Z,16.31
2023-05-09T18:35:34.471Z,16.34
2023-05-09T18:38:01.959Z,16.28
2023-05-09T18:40:29.285Z,16.20
2023-05-09T18:42:56.432Z,16.00
2023-05-09T18:45:23.775Z,16.00
2023-05-09T18:47:51.132Z,15.83
2023-05-09T18:50:19.114Z,15.87
2023-05-09T18:52:46.414Z,15.76
2023-05-09T18:55:14.841Z,15.65
2023-05-09T18:57:42.081Z,15.53
2023-05-09T19:00:09.673Z,15.55
2023-05-09T19:02:36.942Z,15.53
2023-05-09T19:05:08.580Z,15.53
2023-05-09T19:07:35.811Z,15.34
2023-05-09T19:10:08.219Z,15.17
2023-05-09T19:12:35.477Z,15.22
2023-05-09T19:15:03.471Z,15.24
2023-05-09T19:17:30.724Z,15.20
2023-05-09T19:19:58.009Z,15.21
2023-05-09T19:22:25.306Z,15.11
2023-05-09T19:24:52.511Z,15.07
2023-05-09T19:27:19.705Z,15.07
2023-05-09T19:29:49.263Z,15.02
2023-05-09T19:32:18.048Z,14.93
2023-05-09T19:34:45.223Z,14.84
2023-05-09T19:37:12.449Z,14.66
2023-05-09T19:39:39.586Z,14.11
2023-05-09T19:42:08.008Z,14.14
2023-05-09T19:44:35.306Z,14.24
2023-05-09T19:47:05.265Z,14.39
2023-05-09T19:49:32.763Z,14.32
2023-05-09T19:51:59.919Z,14.33
2023-05-09T19:54:27.241Z,14.32
2023-05-09T19:56:54.570Z,14.29
2023-05-09T19:59:21.756Z,14.26
2023-05-09T20:01:49.110Z,14.21
2023-05-09T20:04:16.558Z,14.11
2023-05-09T20:06:43.891Z,13.94
2023-05-09T20:09:11.304Z,13.91
2023-05-09T20:11:38.457Z,13.82
2023-05-09T20:14:05.635Z,13.87
2023-05-09T20:16:33.232Z,13.87
2023-05-09T20:19:00.689Z,13.74
2023-05-09T20:21:27.916Z,13.80
2023-05-09T20:23:55.067Z,13.74
2023-05-09T20:26:24.519Z,13.70
2023-05-09T20:28:54.519Z,13.66
2023-05-09T20:31:21.738Z,13.68
2023-05-09T20:33:48.984Z,13.71
2023-05-09T20:36:16.173Z,13.57
2023-05-09T20:38:43.532Z,13.50
2023-05-09T20:41:10.711Z,13.47
2023-05-09T20:43:38.366Z,13.36
2023-05-09T20:46:05.557Z,13.36
2023-05-09T20:48:33.189Z,13.26
2023-05-09T20:51:00.584Z,13.20
2023-05-09T20:53:31.243Z,13.15
2023-05-09T20:55:59.838Z,13.05
2023-05-09T20:58:32.277Z,13.02
2023-05-09T21:00:59.612Z,12.96
2023-05-09T21:03:26.979Z,12.96
2023-05-09T21:05:54.326Z,12.98
2023-05-09T21:08:21.535Z,12.89
2023-05-09T21:10:51.709Z,12.82
2023-05-09T21:13:18.971Z,12.75
2023-05-09T21:15:50.108Z,12.73
2023-05-09T21:18:17.509Z,12.75
2023-05-09T21:20:45.309Z,12.73
2023-05-09T21:23:12.473Z,12.57
2023-05-09T21:25:39.793Z,12.61
2023-05-09T21:28:06.963Z,12.54
2023-05-09T21:30:34.114Z,12.47
2023-05-09T21:33:01.940Z,12.40
2023-05-09T21:35:29.206Z,12.38
2023-05-09T21:37:56.414Z,12.36
2023-05-09T21:40:23.747Z,12.36
2023-05-09T21:42:50.875Z,12.27
2023-05-09T21:45:18.480Z,12.32
2023-05-09T21:47:45.945Z,12.25
2023-05-09T21:50:13.927Z,12.27
2023-05-09T21:52:41.327Z,12.27
2023-05-09T21:55:09.152Z,12.29
2023-05-09T21:57:36.332Z,12.22
2023-05-09T22:00:05.634Z,12.17
2023-05-09T22:02:42.562Z,12.20
2023-05-09T22:05:10.553Z,12.16
2023-05-09T22:07:37.705Z,12.10
2023-05-09T22:10:05.610Z,12.13
2023-05-09T22:12:32.964Z,12.10
2023-05-09T22:15:00.172Z,12.07
2023-05-09T22:17:27.378Z,12.02
2023-05-09T22:19:54.589Z,11.99
2023-05-09T22:22:21.839Z,11.93
2023-05-09T22:24:49.800Z,12.00
2023-05-09T22:27:16.978Z,11.90
2023-05-09T22:29:44.230Z,11.90
2023-05-09T22:32:11.634Z,11.88
2023-05-09T22:34:38.934Z,11.86
2023-05-09T22:37:06.238Z,11.81
2023-05-09T22:39:33.431Z,11.79
2023-05-09T22:42:02.493Z,11.72
2023-05-09T22:44:29.735Z,11.75
2023-05-09T22:46:56.951Z,11.65
2023-05-09T22:49:24.289Z,11.64
2023-05-09T22:51:51.457Z,11.57
2023-05-09T22:54:21.692Z,11.61
2023-05-09T22:56:49.039Z,11.47
2023-05-09T22:59:16.329Z,11.37
2023-05-09T23:01:43.697Z,11.37
2023-05-09T23:04:10.957Z,11.17
2023-05-09T23:06:38.139Z,11.00
2023-05-09T23:09:05.328Z,11.14
2023-05-09T23:11:32.499Z,11.03
2023-05-09T23:13:59.828Z,10.99
2023-05-09T23:16:27.001Z,11.06
2023-05-09T23:18:54.230Z,10.99
2023-05-09T23:21:21.463Z,10.92
2023-05-09T23:23:48.691Z,10.89
2023-05-09T23:26:15.840Z,10.68
2023-05-09T23:28:43.057Z,10.68
2023-05-09T23:31:10.460Z,10.71
2023-05-09T23:33:37.691Z,10.77
2023-05-09T23:36:05.301Z,10.72
2023-05-09T23:38:32.463Z,10.61
2023-05-09T23:41:01.077Z,10.52
2023-05-09T23:43:28.884Z,10.58
2023-05-09T23:45:59.376Z,10.21
2023-05-09T23:48:26.869Z,10.35
2023-05-09T23:50:54.027Z,10.42
2023-05-09T23:53:21.418Z,10.22
2023-05-09T23:55:48.737Z,10.17
2023-05-09T23:58:16.486Z,10.08
